sensor_id;sensor_type;location;lat;lon;timestamp;P1;durP1;ratioP1;P2;durP2;ratioP2
15342;SDS011;7771;48.478;8.936;2023-04-25T00:01:24;5.10;;;3.00;;
15342;SDS011;7771;48.478;8.936;2023-04-25T00:03:50;3.90;;;3.07;;
15342;SDS011;7771;48.478;8.936;2023-04-25T00:06:18;5.10;;;3.50;;
15342;SDS011;7771;48.478;8.936;2023-04-25T00:08:45;9.00;;;3.80;;
15342;SDS011;7771;48.478;8.936;2023-04-25T00:11:12;6.03;;;3.63;;
15342;SDS011;7771;48.478;8.936;2023-04-25T00:13:39;6.27;;;3.80;;
15342;SDS011;7771;48.478;8.936;2023-04-25T00:16:05;9.33;;;4.63;;
15342;SDS011;7771;48.478;8.936;2023-04-25T00:18:33;6.63;;;3.97;;
15342;SDS011;7771;48.478;8.936;2023-04-25T00:21:00;8.73;;;4.20;;
15342;SDS011;7771;48.478;8.936;2023-04-25T00:23:27;6.40;;;4.07;;
15342;SDS011;7771;48.478;8.936;2023-04-25T00:25:55;6.00;;;4.10;;
15342;SDS011;7771;48.478;8.936;2023-04-25T00:28:22;4.73;;;4.00;;
15342;SDS011;7771;48.478;8.936;2023-04-25T00:30:48;5.83;;;3.43;;
15342;SDS011;7771;48.478;8.936;2023-04-25T00:33:16;5.00;;;3.40;;
15342;SDS011;7771;48.478;8.936;2023-04-25T00:35:42;5.70;;;3.40;;
15342;SDS011;7771;48.478;8.936;2023-04-25T00:38:10;6.77;;;4.20;;
15342;SDS011;7771;48.478;8.936;2023-04-25T00:40:38;6.23;;;3.60;;
15342;SDS011;7771;48.478;8.936;2023-04-25T00:43:04;5.27;;;3.23;;
15342;SDS011;7771;48.478;8.936;2023-04-25T00:45:31;6.57;;;3.90;;
15342;SDS011;7771;48.478;8.936;2023-04-25T00:47:59;7.17;;;3.83;;
15342;SDS011;7771;48.478;8.936;2023-04-25T00:50:26;6.80;;;3.57;;
15342;SDS011;7771;48.478;8.936;2023-04-25T00:52:54;3.47;;;3.17;;
15342;SDS011;7771;48.478;8.936;2023-04-25T00:55:21;3.53;;;3.03;;
15342;SDS011;7771;48.478;8.936;2023-04-25T00:57:47;4.53;;;3.10;;
15342;SDS011;7771;48.478;8.936;2023-04-25T01:00:15;5.77;;;3.60;;
15342;SDS011;7771;48.478;8.936;2023-04-25T01:02:41;5.67;;;3.67;;
15342;SDS011;7771;48.478;8.936;2023-04-25T01:05:09;5.53;;;3.70;;
15342;SDS011;7771;48.478;8.936;2023-04-25T01:07:35;6.63;;;3.70;;
15342;SDS011;7771;48.478;8.936;2023-04-25T01:10:03;6.57;;;4.00;;
15342;SDS011;7771;48.478;8.936;2023-04-25T01:12:30;7.13;;;3.20;;
15342;SDS011;7771;48.478;8.936;2023-04-25T01:14:56;7.00;;;3.60;;
15342;SDS011;7771;48.478;8.936;2023-04-25T01:17:23;6.83;;;3.90;;
15342;SDS011;7771;48.478;8.936;2023-04-25T01:19:50;3.77;;;3.30;;
15342;SDS011;7771;48.478;8.936;2023-04-25T01:22:16;8.50;;;3.67;;
15342;SDS011;7771;48.478;8.936;2023-04-25T01:24:44;4.80;;;3.20;;
15342;SDS011;7771;48.478;8.936;2023-04-25T01:27:11;4.37;;;3.43;;
15342;SDS011;7771;48.478;8.936;2023-04-25T01:29:38;5.93;;;4.10;;
15342;SDS011;7771;48.478;8.936;2023-04-25T01:32:07;8.63;;;4.50;;
15342;SDS011;7771;48.478;8.936;2023-04-25T01:34:34;4.67;;;3.67;;
15342;SDS011;7771;48.478;8.936;2023-04-25T01:37:02;5.60;;;3.53;;
15342;SDS011;7771;48.478;8.936;2023-04-25T01:39:30;6.03;;;3.80;;
15342;SDS011;7771;48.478;8.936;2023-04-25T01:41:58;4.20;;;3.00;;
15342;SDS011;7771;48.478;8.936;2023-04-25T01:44:26;5.20;;;3.40;;
15342;SDS011;7771;48.478;8.936;2023-04-25T01:46:53;7.03;;;3.13;;
15342;SDS011;7771;48.478;8.936;2023-04-25T01:49:20;5.37;;;2.83;;
15342;SDS011;7771;48.478;8.936;2023-04-25T01:51:47;2.90;;;2.50;;
15342;SDS011;7771;48.478;8.936;2023-04-25T01:54:15;6.40;;;3.10;;
15342;SDS011;7771;48.478;8.936;2023-04-25T01:56:42;3.30;;;2.83;;
15342;SDS011;7771;48.478;8.936;2023-04-25T01:59:10;3.33;;;3.03;;
15342;SDS011;7771;48.478;8.936;2023-04-25T02:01:37;3.00;;;2.60;;
15342;SDS011;7771;48.478;8.936;2023-04-25T02:04:05;4.63;;;3.17;;
15342;SDS011;7771;48.478;8.936;2023-04-25T02:06:33;3.63;;;2.80;;
15342;SDS011;7771;48.478;8.936;2023-04-25T02:09:01;5.70;;;3.30;;
15342;SDS011;7771;48.478;8.936;2023-04-25T02:11:27;3.60;;;3.03;;
15342;SDS011;7771;48.478;8.936;2023-04-25T02:13:54;5.93;;;3.37;;
15342;SDS011;7771;48.478;8.936;2023-04-25T02:16:21;3.73;;;2.80;;
15342;SDS011;7771;48.478;8.936;2023-04-25T02:18:48;4.50;;;2.87;;
15342;SDS011;7771;48.478;8.936;2023-04-25T02:21:15;8.87;;;2.87;;
15342;SDS011;7771;48.478;8.936;2023-04-25T02:23:43;4.67;;;3.33;;
15342;SDS011;7771;48.478;8.936;2023-04-25T02:26:10;3.80;;;2.87;;
15342;SDS011;7771;48.478;8.936;2023-04-25T02:28:38;2.97;;;2.60;;
15342;SDS011;7771;48.478;8.936;2023-04-25T02:31:04;4.03;;;3.20;;
15342;SDS011;7771;48.478;8.936;2023-04-25T02:33:33;4.43;;;3.13;;
15342;SDS011;7771;48.478;8.936;2023-04-25T02:36:00;3.83;;;2.90;;
15342;SDS011;7771;48.478;8.936;2023-04-25T02:38:28;4.93;;;3.30;;
15342;SDS011;7771;48.478;8.936;2023-04-25T02:40:55;3.60;;;3.03;;
15342;SDS011;7771;48.478;8.936;2023-04-25T02:43:21;3.97;;;2.90;;
15342;SDS011;7771;48.478;8.936;2023-04-25T02:45:49;5.63;;;2.93;;
15342;SDS011;7771;48.478;8.936;2023-04-25T02:48:15;3.70;;;2.80;;
15342;SDS011;7771;48.478;8.936;2023-04-25T02:50:42;3.70;;;3.07;;
15342;SDS011;7771;48.478;8.936;2023-04-25T02:53:09;5.63;;;3.10;;
15342;SDS011;7771;48.478;8.936;2023-04-25T02:55:37;5.20;;;3.03;;
15342;SDS011;7771;48.478;8.936;2023-04-25T02:58:04;6.03;;;2.77;;
15342;SDS011;7771;48.478;8.936;2023-04-25T03:00:32;4.73;;;2.90;;
15342;SDS011;7771;48.478;8.936;2023-04-25T03:02:58;4.30;;;2.83;;
15342;SDS011;7771;48.478;8.936;2023-04-25T03:05:25;5.67;;;2.80;;
15342;SDS011;7771;48.478;8.936;2023-04-25T03:07:52;3.53;;;2.80;;
15342;SDS011;7771;48.478;8.936;2023-04-25T03:10:19;4.77;;;3.07;;
15342;SDS011;7771;48.478;8.936;2023-04-25T03:12:46;3.53;;;2.63;;
15342;SDS011;7771;48.478;8.936;2023-04-25T03:15:14;3.97;;;3.30;;
15342;SDS011;7771;48.478;8.936;2023-04-25T03:17:40;5.53;;;3.37;;
15342;SDS011;7771;48.478;8.936;2023-04-25T03:20:08;4.60;;;3.67;;
15342;SDS011;7771;48.478;8.936;2023-04-25T03:22:36;4.13;;;3.00;;
15342;SDS011;7771;48.478;8.936;2023-04-25T03:25:02;3.37;;;2.73;;
15342;SDS011;7771;48.478;8.936;2023-04-25T03:27:31;5.33;;;3.60;;
15342;SDS011;7771;48.478;8.936;2023-04-25T03:29:58;5.93;;;3.27;;
15342;SDS011;7771;48.478;8.936;2023-04-25T03:32:26;5.53;;;2.93;;
15342;SDS011;7771;48.478;8.936;2023-04-25T03:34:54;6.63;;;3.10;;
15342;SDS011;7771;48.478;8.936;2023-04-25T03:37:21;5.63;;;2.70;;
15342;SDS011;7771;48.478;8.936;2023-04-25T03:39:47;4.77;;;2.90;;
15342;SDS011;7771;48.478;8.936;2023-04-25T03:42:15;3.70;;;3.20;;
15342;SDS011;7771;48.478;8.936;2023-04-25T03:44:41;3.10;;;2.70;;
15342;SDS011;7771;48.478;8.936;2023-04-25T03:47:10;4.07;;;2.80;;
15342;SDS011;7771;48.478;8.936;2023-04-25T03:49:37;6.97;;;3.23;;
15342;SDS011;7771;48.478;8.936;2023-04-25T03:52:03;3.10;;;2.80;;
15342;SDS011;7771;48.478;8.936;2023-04-25T03:54:32;3.20;;;2.57;;
15342;SDS011;7771;48.478;8.936;2023-04-25T03:56:58;5.07;;;2.53;;
15342;SDS011;7771;48.478;8.936;2023-04-25T03:59:26;4.97;;;2.80;;
15342;SDS011;7771;48.478;8.936;2023-04-25T04:01:54;8.03;;;3.47;;
15342;SDS011;7771;48.478;8.936;2023-04-25T04:04:20;4.10;;;3.10;;
15342;SDS011;7771;48.478;8.936;2023-04-25T04:06:48;4.77;;;3.53;;
15342;SDS011;7771;48.478;8.936;2023-04-25T04:09:14;3.63;;;3.00;;
15342;SDS011;7771;48.478;8.936;2023-04-25T04:11:42;4.33;;;3.37;;
15342;SDS011;7771;48.478;8.936;2023-04-25T04:14:10;4.13;;;2.80;;
15342;SDS011;7771;48.478;8.936;2023-04-25T04:16:36;4.37;;;2.87;;
15342;SDS011;7771;48.478;8.936;2023-04-25T04:19:03;7.63;;;3.00;;
15342;SDS011;7771;48.478;8.936;2023-04-25T04:21:30;3.63;;;2.83;;
15342;SDS011;7771;48.478;8.936;2023-04-25T04:23:58;4.03;;;3.03;;
15342;SDS011;7771;48.478;8.936;2023-04-25T04:26:26;5.53;;;3.27;;
15342;SDS011;7771;48.478;8.936;2023-04-25T04:28:53;5.20;;;3.00;;
15342;SDS011;7771;48.478;8.936;2023-04-25T04:31:21;3.57;;;2.83;;
15342;SDS011;7771;48.478;8.936;2023-04-25T04:33:47;5.70;;;3.10;;
15342;SDS011;7771;48.478;8.936;2023-04-25T04:36:15;7.37;;;2.90;;
15342;SDS011;7771;48.478;8.936;2023-04-25T04:38:42;4.97;;;2.80;;
15342;SDS011;7771;48.478;8.936;2023-04-25T04:41:10;7.40;;;3.90;;
15342;SDS011;7771;48.478;8.936;2023-04-25T04:43:38;3.70;;;2.80;;
15342;SDS011;7771;48.478;8.936;2023-04-25T04:46:04;3.73;;;3.20;;
15342;SDS011;7771;48.478;8.936;2023-04-25T04:48:32;4.87;;;3.17;;
15342;SDS011;7771;48.478;8.936;2023-04-25T04:51:00;5.80;;;3.40;;
15342;SDS011;7771;48.478;8.936;2023-04-25T04:53:28;4.93;;;3.00;;
15342;SDS011;7771;48.478;8.936;2023-04-25T04:55:56;4.00;;;3.03;;
15342;SDS011;7771;48.478;8.936;2023-04-25T04:58:24;4.93;;;3.13;;
15342;SDS011;7771;48.478;8.936;2023-04-25T05:00:51;6.60;;;4.40;;
15342;SDS011;7771;48.478;8.936;2023-04-25T05:03:20;4.37;;;3.07;;
15342;SDS011;7771;48.478;8.936;2023-04-25T05:05:46;5.60;;;3.80;;
15342;SDS011;7771;48.478;8.936;2023-04-25T05:08:13;7.87;;;3.20;;
15342;SDS011;7771;48.478;8.936;2023-04-25T05:10:41;5.77;;;2.60;;
15342;SDS011;7771;48.478;8.936;2023-04-25T05:13:08;3.80;;;3.00;;
15342;SDS011;7771;48.478;8.936;2023-04-25T05:15:35;5.27;;;3.53;;
15342;SDS011;7771;48.478;8.936;2023-04-25T05:18:03;3.97;;;2.90;;
15342;SDS011;7771;48.478;8.936;2023-04-25T05:20:30;4.47;;;3.27;;
15342;SDS011;7771;48.478;8.936;2023-04-25T05:22:58;6.43;;;3.20;;
15342;SDS011;7771;48.478;8.936;2023-04-25T05:25:26;5.97;;;3.50;;
15342;SDS011;7771;48.478;8.936;2023-04-25T05:27:53;3.40;;;2.47;;
15342;SDS011;7771;48.478;8.936;2023-04-25T05:30:21;9.10;;;3.20;;
15342;SDS011;7771;48.478;8.936;2023-04-25T05:32:47;4.00;;;3.23;;
15342;SDS011;7771;48.478;8.936;2023-04-25T05:35:16;5.70;;;2.90;;
15342;SDS011;7771;48.478;8.936;2023-04-25T05:37:44;5.07;;;2.90;;
15342;SDS011;7771;48.478;8.936;2023-04-25T05:40:11;4.60;;;3.00;;
15342;SDS011;7771;48.478;8.936;2023-04-25T05:42:39;4.00;;;3.20;;
15342;SDS011;7771;48.478;8.936;2023-04-25T05:45:05;5.37;;;2.83;;
15342;SDS011;7771;48.478;8.936;2023-04-25T05:47:33;4.47;;;3.13;;
15342;SDS011;7771;48.478;8.936;2023-04-25T05:50:00;3.27;;;2.73;;
15342;SDS011;7771;48.478;8.936;2023-04-25T05:52:27;4.50;;;3.20;;
15342;SDS011;7771;48.478;8.936;2023-04-25T05:54:54;5.17;;;3.40;;
15342;SDS011;7771;48.478;8.936;2023-04-25T05:57:22;4.07;;;3.00;;
15342;SDS011;7771;48.478;8.936;2023-04-25T05:59:48;2.60;;;2.33;;
15342;SDS011;7771;48.478;8.936;2023-04-25T06:02:16;4.53;;;2.73;;
15342;SDS011;7771;48.478;8.936;2023-04-25T06:04:42;6.60;;;3.10;;
15342;SDS011;7771;48.478;8.936;2023-04-25T06:07:09;3.57;;;3.27;;
15342;SDS011;7771;48.478;8.936;2023-04-25T06:09:36;5.37;;;2.73;;
15342;SDS011;7771;48.478;8.936;2023-04-25T06:12:04;6.33;;;3.03;;
15342;SDS011;7771;48.478;8.936;2023-04-25T06:14:31;6.27;;;2.70;;
15342;SDS011;7771;48.478;8.936;2023-04-25T06:16:59;5.33;;;3.07;;
15342;SDS011;7771;48.478;8.936;2023-04-25T06:19:26;9.37;;;3.60;;
15342;SDS011;7771;48.478;8.936;2023-04-25T06:21:53;6.33;;;3.23;;
15342;SDS011;7771;48.478;8.936;2023-04-25T06:24:20;8.27;;;3.50;;
15342;SDS011;7771;48.478;8.936;2023-04-25T06:26:49;5.43;;;3.80;;
15342;SDS011;7771;48.478;8.936;2023-04-25T06:29:15;6.43;;;3.83;;
15342;SDS011;7771;48.478;8.936;2023-04-25T06:31:43;4.03;;;2.93;;
15342;SDS011;7771;48.478;8.936;2023-04-25T06:34:11;3.33;;;2.83;;
15342;SDS011;7771;48.478;8.936;2023-04-25T06:36:38;3.73;;;3.10;;
15342;SDS011;7771;48.478;8.936;2023-04-25T06:39:05;5.67;;;3.07;;
15342;SDS011;7771;48.478;8.936;2023-04-25T06:41:33;6.17;;;2.77;;
15342;SDS011;7771;48.478;8.936;2023-04-25T06:44:00;4.87;;;3.03;;
15342;SDS011;7771;48.478;8.936;2023-04-25T06:46:26;5.03;;;3.70;;
15342;SDS011;7771;48.478;8.936;2023-04-25T06:48:53;3.07;;;2.60;;
15342;SDS011;7771;48.478;8.936;2023-04-25T06:51:20;7.43;;;3.10;;
15342;SDS011;7771;48.478;8.936;2023-04-25T06:53:46;5.27;;;3.03;;
15342;SDS011;7771;48.478;8.936;2023-04-25T06:56:15;3.33;;;2.97;;
15342;SDS011;7771;48.478;8.936;2023-04-25T06:58:42;5.97;;;3.23;;
15342;SDS011;7771;48.478;8.936;2023-04-25T07:01:10;4.13;;;2.93;;
15342;SDS011;7771;48.478;8.936;2023-04-25T07:03:36;5.47;;;3.40;;
15342;SDS011;7771;48.478;8.936;2023-04-25T07:06:03;7.83;;;4.10;;
15342;SDS011;7771;48.478;8.936;2023-04-25T07:08:30;17.80;;;3.67;;
15342;SDS011;7771;48.478;8.936;2023-04-25T07:10:56;6.20;;;3.80;;
15342;SDS011;7771;48.478;8.936;2023-04-25T07:13:23;9.07;;;2.87;;
15342;SDS011;7771;48.478;8.936;2023-04-25T07:15:50;3.97;;;3.10;;
15342;SDS011;7771;48.478;8.936;2023-04-25T07:18:19;6.00;;;3.60;;
15342;SDS011;7771;48.478;8.936;2023-04-25T07:20:45;4.90;;;3.00;;
15342;SDS011;7771;48.478;8.936;2023-04-25T07:23:13;6.43;;;3.30;;
15342;SDS011;7771;48.478;8.936;2023-04-25T07:25:41;4.20;;;2.90;;
15342;SDS011;7771;48.478;8.936;2023-04-25T07:28:07;7.60;;;3.97;;
15342;SDS011;7771;48.478;8.936;2023-04-25T07:30:36;6.63;;;3.67;;
15342;SDS011;7771;48.478;8.936;2023-04-25T07:33:03;6.20;;;3.83;;
15342;SDS011;7771;48.478;8.936;2023-04-25T07:35:31;3.93;;;3.20;;
15342;SDS011;7771;48.478;8.936;2023-04-25T07:37:59;7.57;;;4.43;;
15342;SDS011;7771;48.478;8.936;2023-04-25T07:40:27;5.53;;;3.67;;
15342;SDS011;7771;48.478;8.936;2023-04-25T07:42:55;6.37;;;4.10;;
15342;SDS011;7771;48.478;8.936;2023-04-25T07:45:22;7.40;;;3.97;;
15342;SDS011;7771;48.478;8.936;2023-04-25T07:47:48;7.37;;;3.60;;
15342;SDS011;7771;48.478;8.936;2023-04-25T07:50:16;4.73;;;3.13;;
15342;SDS011;7771;48.478;8.936;2023-04-25T07:52:43;4.23;;;3.53;;
15342;SDS011;7771;48.478;8.936;2023-04-25T07:55:10;15.57;;;7.13;;
15342;SDS011;7771;48.478;8.936;2023-04-25T07:57:36;9.37;;;4.90;;
15342;SDS011;7771;48.478;8.936;2023-04-25T08:00:08;4.97;;;3.60;;
15342;SDS011;7771;48.478;8.936;2023-04-25T08:02:37;7.00;;;3.50;;
15342;SDS011;7771;48.478;8.936;2023-04-25T08:05:03;3.63;;;2.80;;
15342;SDS011;7771;48.478;8.936;2023-04-25T08:07:30;3.80;;;3.17;;
15342;SDS011;7771;48.478;8.936;2023-04-25T08:09:58;5.93;;;3.00;;
15342;SDS011;7771;48.478;8.936;2023-04-25T08:12:26;5.17;;;3.23;;
15342;SDS011;7771;48.478;8.936;2023-04-25T08:14:53;4.20;;;3.40;;
15342;SDS011;7771;48.478;8.936;2023-04-25T08:17:20;4.03;;;3.30;;
15342;SDS011;7771;48.478;8.936;2023-04-25T08:19:47;4.73;;;2.90;;
15342;SDS011;7771;48.478;8.936;2023-04-25T08:22:14;3.73;;;3.17;;
15342;SDS011;7771;48.478;8.936;2023-04-25T08:24:41;4.27;;;3.30;;
15342;SDS011;7771;48.478;8.936;2023-04-25T08:27:08;7.90;;;3.30;;
15342;SDS011;7771;48.478;8.936;2023-04-25T08:29:34;4.53;;;3.13;;
15342;SDS011;7771;48.478;8.936;2023-04-25T08:32:02;4.17;;;3.20;;
15342;SDS011;7771;48.478;8.936;2023-04-25T08:34:30;7.13;;;3.30;;
15342;SDS011;7771;48.478;8.936;2023-04-25T08:36:56;6.20;;;3.53;;
15342;SDS011;7771;48.478;8.936;2023-04-25T08:39:23;3.67;;;2.80;;
15342;SDS011;7771;48.478;8.936;2023-04-25T08:41:52;3.90;;;2.80;;
15342;SDS011;7771;48.478;8.936;2023-04-25T08:44:20;3.77;;;2.60;;
15342;SDS011;7771;48.478;8.936;2023-04-25T08:46:46;3.30;;;2.67;;
15342;SDS011;7771;48.478;8.936;2023-04-25T08:49:14;3.13;;;2.33;;
15342;SDS011;7771;48.478;8.936;2023-04-25T08:51:43;3.53;;;3.23;;
15342;SDS011;7771;48.478;8.936;2023-04-25T08:54:09;3.30;;;2.97;;
15342;SDS011;7771;48.478;8.936;2023-04-25T08:56:38;4.27;;;3.10;;
15342;SDS011;7771;48.478;8.936;2023-04-25T08:59:04;3.30;;;3.00;;
15342;SDS011;7771;48.478;8.936;2023-04-25T09:01:31;4.80;;;3.30;;
15342;SDS011;7771;48.478;8.936;2023-04-25T09:03:59;4.10;;;3.40;;
15342;SDS011;7771;48.478;8.936;2023-04-25T09:06:27;3.73;;;3.33;;
15342;SDS011;7771;48.478;8.936;2023-04-25T09:08:53;3.57;;;3.10;;
15342;SDS011;7771;48.478;8.936;2023-04-25T09:11:21;3.20;;;2.90;;
15342;SDS011;7771;48.478;8.936;2023-04-25T09:13:47;3.50;;;3.17;;
15342;SDS011;7771;48.478;8.936;2023-04-25T09:16:15;3.73;;;3.00;;
15342;SDS011;7771;48.478;8.936;2023-04-25T09:18:43;5.10;;;3.40;;
15342;SDS011;7771;48.478;8.936;2023-04-25T09:21:10;3.73;;;2.93;;
15342;SDS011;7771;48.478;8.936;2023-04-25T09:23:43;3.90;;;2.90;;
15342;SDS011;7771;48.478;8.936;2023-04-25T09:26:08;2.80;;;2.50;;
15342;SDS011;7771;48.478;8.936;2023-04-25T09:28:36;2.83;;;2.53;;
15342;SDS011;7771;48.478;8.936;2023-04-25T09:31:02;3.23;;;2.60;;
15342;SDS011;7771;48.478;8.936;2023-04-25T09:33:31;2.63;;;2.20;;
15342;SDS011;7771;48.478;8.936;2023-04-25T09:36:01;2.20;;;2.00;;
15342;SDS011;7771;48.478;8.936;2023-04-25T09:38:29;2.10;;;1.90;;
15342;SDS011;7771;48.478;8.936;2023-04-25T09:40:56;1.83;;;1.70;;
15342;SDS011;7771;48.478;8.936;2023-04-25T09:43:23;7.60;;;4.03;;
15342;SDS011;7771;48.478;8.936;2023-04-25T09:45:50;6.83;;;4.67;;
15342;SDS011;7771;48.478;8.936;2023-04-25T09:48:17;2.30;;;2.10;;
15342;SDS011;7771;48.478;8.936;2023-04-25T09:50:44;1.73;;;1.57;;
15342;SDS011;7771;48.478;8.936;2023-04-25T09:53:13;1.87;;;1.50;;
15342;SDS011;7771;48.478;8.936;2023-04-25T09:55:39;1.50;;;1.40;;
15342;SDS011;7771;48.478;8.936;2023-04-25T09:58:07;2.50;;;1.93;;
15342;SDS011;7771;48.478;8.936;2023-04-25T10:00:34;1.17;;;1.07;;
15342;SDS011;7771;48.478;8.936;2023-04-25T10:05:38;1.47;;;1.20;;
15342;SDS011;7771;48.478;8.936;2023-04-25T10:08:05;0.80;;;0.80;;
15342;SDS011;7771;48.478;8.936;2023-04-25T10:10:31;1.20;;;1.10;;
15342;SDS011;7771;48.478;8.936;2023-04-25T10:12:58;3.00;;;2.70;;
15342;SDS011;7771;48.478;8.936;2023-04-25T10:15:26;2.10;;;1.90;;
15342;SDS011;7771;48.478;8.936;2023-04-25T10:17:52;1.73;;;1.50;;
15342;SDS011;7771;48.478;8.936;2023-04-25T10:20:19;0.77;;;0.77;;
15342;SDS011;7771;48.478;8.936;2023-04-25T10:22:46;2.00;;;1.07;;
15342;SDS011;7771;48.478;8.936;2023-04-25T10:25:13;1.20;;;1.10;;
15342;SDS011;7771;48.478;8.936;2023-04-25T10:27:42;1.10;;;1.00;;
15342;SDS011;7771;48.478;8.936;2023-04-25T10:30:10;1.13;;;1.03;;
15342;SDS011;7771;48.478;8.936;2023-04-25T10:32:36;1.37;;;0.90;;
15342;SDS011;7771;48.478;8.936;2023-04-25T10:35:10;1.43;;;1.33;;
15342;SDS011;7771;48.478;8.936;2023-04-25T10:37:57;0.80;;;0.80;;
15342;SDS011;7771;48.478;8.936;2023-04-25T10:40:24;1.20;;;0.80;;
15342;SDS011;7771;48.478;8.936;2023-04-25T10:42:52;0.93;;;0.93;;
15342;SDS011;7771;48.478;8.936;2023-04-25T10:45:18;0.80;;;0.80;;
15342;SDS011;7771;48.478;8.936;2023-04-25T10:47:45;0.43;;;0.43;;
15342;SDS011;7771;48.478;8.936;2023-04-25T10:50:14;0.90;;;0.90;;
15342;SDS011;7771;48.478;8.936;2023-04-25T10:52:43;0.80;;;0.80;;
15342;SDS011;7771;48.478;8.936;2023-04-25T10:55:10;1.00;;;0.70;;
15342;SDS011;7771;48.478;8.936;2023-04-25T10:57:41;1.60;;;1.00;;
15342;SDS011;7771;48.478;8.936;2023-04-25T11:00:13;1.50;;;1.30;;
15342;SDS011;7771;48.478;8.936;2023-04-25T11:02:45;1.17;;;1.07;;
15342;SDS011;7771;48.478;8.936;2023-04-25T11:05:15;1.27;;;0.90;;
15342;SDS011;7771;48.478;8.936;2023-04-25T11:07:49;2.10;;;1.10;;
15342;SDS011;7771;48.478;8.936;2023-04-25T11:10:11;1.33;;;1.00;;
15342;SDS011;7771;48.478;8.936;2023-04-25T11:12:38;2.00;;;1.33;;
15342;SDS011;7771;48.478;8.936;2023-04-25T11:15:06;1.30;;;0.90;;
15342;SDS011;7771;48.478;8.936;2023-04-25T11:17:34;1.10;;;1.00;;
15342;SDS011;7771;48.478;8.936;2023-04-25T11:20:02;1.80;;;1.10;;
15342;SDS011;7771;48.478;8.936;2023-04-25T11:22:29;1.93;;;1.30;;
15342;SDS011;7771;48.478;8.936;2023-04-25T11:24:58;3.70;;;1.30;;
15342;SDS011;7771;48.478;8.936;2023-04-25T11:27:24;1.10;;;1.00;;
15342;SDS011;7771;48.478;8.936;2023-04-25T11:29:52;1.60;;;1.13;;
15342;SDS011;7771;48.478;8.936;2023-04-25T11:32:19;3.07;;;2.20;;
15342;SDS011;7771;48.478;8.936;2023-04-25T11:34:46;2.53;;;1.00;;
15342;SDS011;7771;48.478;8.936;2023-04-25T11:37:13;1.73;;;1.17;;
15342;SDS011;7771;48.478;8.936;2023-04-25T11:39:42;1.73;;;1.17;;
15342;SDS011;7771;48.478;8.936;2023-04-25T11:42:08;1.23;;;1.10;;
15342;SDS011;7771;48.478;8.936;2023-04-25T11:44:35;1.03;;;0.97;;
15342;SDS011;7771;48.478;8.936;2023-04-25T11:47:02;1.20;;;1.00;;
15342;SDS011;7771;48.478;8.936;2023-04-25T11:49:30;1.37;;;1.10;;
15342;SDS011;7771;48.478;8.936;2023-04-25T11:51:58;2.50;;;1.20;;
15342;SDS011;7771;48.478;8.936;2023-04-25T11:54:25;4.60;;;1.77;;
15342;SDS011;7771;48.478;8.936;2023-04-25T11:56:51;2.10;;;1.23;;
15342;SDS011;7771;48.478;8.936;2023-04-25T11:59:22;1.70;;;1.20;;
15342;SDS011;7771;48.478;8.936;2023-04-25T12:01:48;1.10;;;0.90;;
15342;SDS011;7771;48.478;8.936;2023-04-25T12:04:15;2.50;;;1.37;;
15342;SDS011;7771;48.478;8.936;2023-04-25T12:09:17;1.00;;;0.80;;
15342;SDS011;7771;48.478;8.936;2023-04-25T12:11:42;2.80;;;1.37;;
15342;SDS011;7771;48.478;8.936;2023-04-25T12:14:12;2.83;;;1.30;;
15342;SDS011;7771;48.478;8.936;2023-04-25T12:16:40;2.07;;;1.00;;
15342;SDS011;7771;48.478;8.936;2023-04-25T12:19:06;1.70;;;1.00;;
15342;SDS011;7771;48.478;8.936;2023-04-25T12:21:34;2.33;;;1.30;;
15342;SDS011;7771;48.478;8.936;2023-04-25T12:26:49;5.53;;;3.00;;
15342;SDS011;7771;48.478;8.936;2023-04-25T12:29:17;2.17;;;1.53;;
15342;SDS011;7771;48.478;8.936;2023-04-25T12:31:44;1.03;;;0.93;;
15342;SDS011;7771;48.478;8.936;2023-04-25T12:34:11;1.00;;;0.90;;
15342;SDS011;7771;48.478;8.936;2023-04-25T12:36:38;1.00;;;0.90;;
15342;SDS011;7771;48.478;8.936;2023-04-25T12:39:06;0.90;;;0.90;;
15342;SDS011;7771;48.478;8.936;2023-04-25T12:41:34;2.07;;;1.17;;
15342;SDS011;7771;48.478;8.936;2023-04-25T12:44:02;1.10;;;0.90;;
15342;SDS011;7771;48.478;8.936;2023-04-25T12:46:29;1.50;;;0.90;;
15342;SDS011;7771;48.478;8.936;2023-04-25T12:48:57;0.83;;;0.80;;
15342;SDS011;7771;48.478;8.936;2023-04-25T12:51:24;2.13;;;0.80;;
15342;SDS011;7771;48.478;8.936;2023-04-25T12:53:51;1.40;;;1.30;;
15342;SDS011;7771;48.478;8.936;2023-04-25T12:56:19;1.53;;;1.00;;
15342;SDS011;7771;48.478;8.936;2023-04-25T12:58:47;1.43;;;0.93;;
15342;SDS011;7771;48.478;8.936;2023-04-25T13:01:14;1.50;;;1.27;;
15342;SDS011;7771;48.478;8.936;2023-04-25T13:03:41;0.90;;;0.90;;
15342;SDS011;7771;48.478;8.936;2023-04-25T13:06:08;1.80;;;1.37;;
15342;SDS011;7771;48.478;8.936;2023-04-25T13:08:36;1.87;;;1.10;;
15342;SDS011;7771;48.478;8.936;2023-04-25T13:11:04;1.20;;;1.10;;
15342;SDS011;7771;48.478;8.936;2023-04-25T13:13:31;1.40;;;1.20;;
15342;SDS011;7771;48.478;8.936;2023-04-25T13:16:01;1.43;;;1.33;;
15342;SDS011;7771;48.478;8.936;2023-04-25T13:18:29;1.50;;;1.40;;
15342;SDS011;7771;48.478;8.936;2023-04-25T13:20:56;1.83;;;1.50;;
15342;SDS011;7771;48.478;8.936;2023-04-25T13:23:22;2.60;;;1.80;;
15342;SDS011;7771;48.478;8.936;2023-04-25T13:25:50;2.37;;;1.80;;
15342;SDS011;7771;48.478;8.936;2023-04-25T13:28:18;2.23;;;2.00;;
15342;SDS011;7771;48.478;8.936;2023-04-25T13:30:44;1.83;;;1.50;;
15342;SDS011;7771;48.478;8.936;2023-04-25T13:33:11;1.70;;;1.60;;
15342;SDS011;7771;48.478;8.936;2023-04-25T13:35:38;1.63;;;1.30;;
15342;SDS011;7771;48.478;8.936;2023-04-25T13:40:47;1.53;;;1.43;;
15342;SDS011;7771;48.478;8.936;2023-04-25T13:43:13;1.70;;;1.60;;
15342;SDS011;7771;48.478;8.936;2023-04-25T13:45:41;2.27;;;1.70;;
15342;SDS011;7771;48.478;8.936;2023-04-25T13:48:07;3.73;;;2.37;;
15342;SDS011;7771;48.478;8.936;2023-04-25T13:50:35;3.87;;;3.00;;
15342;SDS011;7771;48.478;8.936;2023-04-25T13:53:01;3.10;;;2.67;;
15342;SDS011;7771;48.478;8.936;2023-04-25T13:55:30;2.30;;;2.10;;
15342;SDS011;7771;48.478;8.936;2023-04-25T13:57:56;2.57;;;2.37;;
15342;SDS011;7771;48.478;8.936;2023-04-25T14:00:23;2.40;;;2.20;;
15342;SDS011;7771;48.478;8.936;2023-04-25T14:02:51;3.27;;;2.30;;
15342;SDS011;7771;48.478;8.936;2023-04-25T14:05:18;2.30;;;2.10;;
15342;SDS011;7771;48.478;8.936;2023-04-25T14:07:45;2.27;;;2.07;;
15342;SDS011;7771;48.478;8.936;2023-04-25T14:10:12;2.23;;;2.03;;
15342;SDS011;7771;48.478;8.936;2023-04-25T14:12:38;2.20;;;2.00;;
15342;SDS011;7771;48.478;8.936;2023-04-25T14:15:07;2.40;;;2.20;;
15342;SDS011;7771;48.478;8.936;2023-04-25T14:17:35;2.90;;;2.40;;
15342;SDS011;7771;48.478;8.936;2023-04-25T14:20:02;2.93;;;2.67;;
15342;SDS011;7771;48.478;8.936;2023-04-25T14:22:29;2.70;;;2.50;;
15342;SDS011;7771;48.478;8.936;2023-04-25T14:24:56;4.10;;;3.40;;
15342;SDS011;7771;48.478;8.936;2023-04-25T14:27:23;4.93;;;3.23;;
15342;SDS011;7771;48.478;8.936;2023-04-25T14:29:50;2.50;;;2.30;;
15342;SDS011;7771;48.478;8.936;2023-04-25T14:32:17;2.53;;;2.30;;
15342;SDS011;7771;48.478;8.936;2023-04-25T14:34:44;3.43;;;3.13;;
15342;SDS011;7771;48.478;8.936;2023-04-25T14:37:11;3.43;;;2.40;;
15342;SDS011;7771;48.478;8.936;2023-04-25T14:39:38;3.77;;;3.10;;
15342;SDS011;7771;48.478;8.936;2023-04-25T14:42:07;3.00;;;2.70;;
15342;SDS011;7771;48.478;8.936;2023-04-25T14:44:33;4.40;;;3.37;;
15342;SDS011;7771;48.478;8.936;2023-04-25T14:47:01;3.17;;;2.87;;
15342;SDS011;7771;48.478;8.936;2023-04-25T14:49:27;3.90;;;3.10;;
15342;SDS011;7771;48.478;8.936;2023-04-25T14:51:54;4.47;;;3.10;;
15342;SDS011;7771;48.478;8.936;2023-04-25T14:54:21;2.87;;;2.63;;
15342;SDS011;7771;48.478;8.936;2023-04-25T14:56:48;3.20;;;2.60;;
15342;SDS011;7771;48.478;8.936;2023-04-25T14:59:15;2.70;;;2.40;;
15342;SDS011;7771;48.478;8.936;2023-04-25T15:01:42;3.10;;;2.80;;
15342;SDS011;7771;48.478;8.936;2023-04-25T15:04:09;3.03;;;2.73;;
15342;SDS011;7771;48.478;8.936;2023-04-25T15:06:38;2.90;;;2.60;;
15342;SDS011;7771;48.478;8.936;2023-04-25T15:09:04;4.93;;;3.60;;
15342;SDS011;7771;48.478;8.936;2023-04-25T15:11:30;3.70;;;3.40;;